createdAt,value
2023-05-19T00:00:57.223Z,100956.28
2023-05-19T00:03:27.818Z,100956.63
2023-05-19T00:05:59.718Z,100948.16
2023-05-19T00:08:34.358Z,100948.31
2023-05-19T00:11:04.658Z,100958.47
2023-05-19T00:13:35.497Z,100957.13
2023-05-19T00:16:09.005Z,100957.66
2023-05-19T00:18:39.047Z,100950.84
2023-05-19T00:21:09.326Z,100948.28
2023-05-19T00:23:39.286Z,100957.81
2023-05-19T00:26:09.592Z,100961.00
2023-05-19T00:28:41.127Z,100958.66
2023-05-19T00:31:13.678Z,100968.97
2023-05-19T00:33:43.627Z,100961.50
2023-05-19T00:36:13.722Z,100959.81
2023-05-19T00:38:43.765Z,100963.47
2023-05-19T00:41:13.830Z,100955.06
2023-05-19T00:43:43.931Z,100957.25
2023-05-19T00:46:16.584Z,100966.88
2023-05-19T00:48:46.912Z,100965.53
2023-05-19T00:51:17.987Z,100959.09
2023-05-19T00:53:52.185Z,100958.72
2023-05-19T00:56:23.263Z,100958.06
2023-05-19T00:58:54.871Z,100958.38
2023-05-19T01:01:28.108Z,100967.19
2023-05-19T01:03:59.733Z,100962.78
2023-05-19T01:06:30.604Z,100955.81
2023-05-19T01:09:00.648Z,100957.31
2023-05-19T01:11:31.105Z,100951.59
2023-05-19T01:14:01.237Z,100951.25
2023-05-19T01:16:43.522Z,100950.59
2023-05-19T01:19:34.465Z,100950.25
2023-05-19T01:22:23.053Z,100950.56
2023-05-19T01:25:23.052Z,100943.28
2023-05-19T01:28:28.414Z,100941.63
2023-05-19T01:31:06.190Z,100939.75
2023-05-19T01:33:36.963Z,100950.09
2023-05-19T01:36:11.130Z,100943.84
2023-05-19T01:38:42.473Z,100950.03
2023-05-19T01:41:14.086Z,100949.53
2023-05-19T01:43:45.012Z,100949.50
2023-05-19T01:46:18.753Z,100945.16
2023-05-19T01:48:50.849Z,100945.97
2023-05-19T01:51:20.944Z,100942.72
2023-05-19T01:53:51.403Z,100945.09
2023-05-19T01:56:34.482Z,100941.38
2023-05-19T01:59:24.795Z,100954.22
2023-05-19T02:02:03.870Z,100953.19
2023-05-19T02:04:45.317Z,100952.50
2023-05-19T02:07:25.913Z,100953.16
2023-05-19T02:10:04.207Z,100954.63
2023-05-19T02:12:40.351Z,100963.28
2023-05-19T02:15:16.917Z,100959.22
2023-05-19T02:17:54.703Z,100961.66
2023-05-19T02:20:24.992Z,100959.78
2023-05-19T02:22:55.023Z,100967.56
2023-05-19T02:25:25.976Z,100967.69
2023-05-19T02:27:56.081Z,100975.13
2023-05-19T02:30:26.153Z,100966.03
2023-05-19T02:32:58.704Z,100965.81
2023-05-19T02:35:28.651Z,100966.13
2023-05-19T02:37:59.054Z,100966.97
2023-05-19T02:40:29.009Z,100961.06
2023-05-19T02:42:58.980Z,100956.00
2023-05-19T02:45:29.398Z,100963.41
2023-05-19T02:48:03.321Z,100950.63
2023-05-19T02:50:33.487Z,100957.91
2023-05-19T02:53:03.653Z,100966.31
2023-05-19T02:55:33.651Z,100956.25
2023-05-19T02:58:03.614Z,100952.13
2023-05-19T03:00:33.746Z,100956.97
2023-05-19T03:03:06.675Z,100952.13
2023-05-19T03:05:36.977Z,100946.38
2023-05-19T03:08:07.596Z,100945.44
2023-05-19T03:10:37.626Z,100953.78
2023-05-19T03:13:07.624Z,100953.84
2023-05-19T03:15:37.768Z,100950.44
2023-05-19T03:18:12.186Z,100949.38
2023-05-19T03:20:42.546Z,100942.25
2023-05-19T03:23:12.753Z,100944.03
2023-05-19T03:25:42.738Z,100954.94
2023-05-19T03:28:12.654Z,100944.97
2023-05-19T03:30:42.821Z,100951.38
2023-05-19T03:33:24.177Z,100937.59
2023-05-19T03:35:55.332Z,100932.09
2023-05-19T03:38:25.323Z,100939.94
2023-05-19T03:41:00.424Z,100947.00
2023-05-19T03:43:30.408Z,100949.53
2023-05-19T03:46:05.123Z,100950.25
2023-05-19T03:48:57.964Z,100961.59
2023-05-19T03:51:48.144Z,100964.03
2023-05-19T03:54:42.916Z,100959.28
2023-05-19T03:57:13.791Z,100966.31
2023-05-19T03:59:44.188Z,100969.47
2023-05-19T04:02:14.424Z,100965.81
2023-05-19T04:04:47.072Z,100964.75
2023-05-19T04:07:17.167Z,100968.59
2023-05-19T04:09:48.803Z,100966.81
2023-05-19T04:12:18.791Z,100969.38
2023-05-19T04:14:48.881Z,100968.84
2023-05-19T04:17:18.981Z,100973.16
2023-05-19T04:19:51.557Z,100971.47
2023-05-19T04:22:21.617Z,100956.34
2023-05-19T04:24:53.165Z,100969.78
2023-05-19T04:27:23.161Z,100971.16
2023-05-19T04:29:53.195Z,100970.16
2023-05-19T04:32:23.677Z,100967.75
2023-05-19T04:34:59.007Z,100975.53
2023-05-19T04:37:30.916Z,100976.53
2023-05-19T04:40:02.012Z,100970.56
2023-05-19T04:42:33.134Z,100979.53
2023-05-19T04:45:05.704Z,100978.38
2023-05-19T04:47:39.671Z,100975.75
2023-05-19T04:50:14.428Z,100985.81
2023-05-19T04:52:45.731Z,100985.63
2023-05-19T04:55:16.112Z,100977.50
2023-05-19T04:57:47.219Z,100977.88
2023-05-19T05:00:18.996Z,100983.00
2023-05-19T05:03:05.315Z,100984.75
2023-05-19T05:05:38.522Z,100982.53
2023-05-19T05:08:09.038Z,100986.44
2023-05-19T05:10:43.684Z,100979.78
2023-05-19T05:13:14.415Z,100987.00
2023-05-19T05:15:46.365Z,100989.50
2023-05-19T05:18:17.932Z,100985.03
2023-05-19T05:20:51.742Z,100985.81
2023-05-19T05:23:23.138Z,100990.59
2023-05-19T05:25:54.459Z,100992.69
2023-05-19T05:28:26.115Z,100985.81
2023-05-19T05:30:58.078Z,100994.63
2023-05-19T05:33:28.263Z,100988.59
2023-05-19T05:36:01.271Z,100986.94
2023-05-19T05:38:31.927Z,100979.25
2023-05-19T05:41:03.281Z,100980.59
2023-05-19T05:43:34.280Z,100985.00
2023-05-19T05:46:06.874Z,100982.47
2023-05-19T05:48:38.057Z,100978.63
2023-05-19T05:51:12.428Z,100978.97
2023-05-19T05:53:46.093Z,100971.13
2023-05-19T05:56:18.498Z,100971.00
2023-05-19T05:58:53.965Z,100970.84
2023-05-19T06:01:24.557Z,100978.66
2023-05-19T06:03:55.674Z,100978.63
2023-05-19T06:06:29.856Z,100974.03
2023-05-19T06:08:59.948Z,100976.94
2023-05-19T06:11:31.315Z,100976.63
2023-05-19T06:14:02.685Z,100967.19
2023-05-19T06:16:51.596Z,100970.56
2023-05-19T06:19:21.816Z,100973.31
2023-05-19T06:21:54.687Z,100970.94
2023-05-19T06:24:24.715Z,100972.97
2023-05-19T06:26:54.747Z,100967.59
2023-05-19T06:29:24.804Z,100969.66
2023-05-19T06:31:57.018Z,100963.69
2023-05-19T06:34:28.095Z,100966.09
2023-05-19T06:37:02.669Z,100956.78
2023-05-19T06:39:33.995Z,100969.66
2023-05-19T06:42:07.677Z,100969.50
2023-05-19T06:44:53.897Z,100975.75
2023-05-19T06:47:23.994Z,100978.47
2023-05-19T06:49:56.976Z,100975.94
2023-05-19T06:52:32.995Z,100977.81
2023-05-19T06:55:04.682Z,100966.97
2023-05-19T06:57:36.274Z,100967.81
2023-05-19T07:00:09.479Z,100955.78
2023-05-19T07:02:39.736Z,100966.81
2023-05-19T07:05:11.120Z,100964.63
2023-05-19T07:07:44.348Z,100957.81
2023-05-19T07:10:17.503Z,100957.31
2023-05-19T07:12:48.370Z,100955.09
2023-05-19T07:15:20.850Z,100958.66
2023-05-19T07:17:51.627Z,100955.09
2023-05-19T07:20:21.837Z,100951.34
2023-05-19T07:22:54.481Z,100954.56
2023-05-19T07:25:26.336Z,100953.19
2023-05-19T07:27:56.548Z,100953.88
2023-05-19T07:30:26.596Z,100947.88
2023-05-19T07:32:56.623Z,100939.72
2023-05-19T07:35:27.130Z,100942.09
2023-05-19T07:37:59.950Z,100935.59
2023-05-19T07:40:59.303Z,100935.09
2023-05-19T07:43:29.965Z,100943.66
2023-05-19T07:46:00.123Z,100939.31
2023-05-19T07:48:30.331Z,100938.97
2023-05-19T07:51:00.477Z,100938.38
2023-05-19T07:53:33.130Z,100929.97
2023-05-19T07:56:03.358Z,100940.16
2023-05-19T07:58:33.515Z,100934.97
2023-05-19T08:01:04.026Z,100935.31
2023-05-19T08:03:34.197Z,100924.44
2023-05-19T08:06:04.364Z,100914.16
2023-05-19T08:08:37.031Z,100922.00
2023-05-19T08:11:07.840Z,100924.72
2023-05-19T08:13:37.908Z,100918.38
2023-05-19T08:16:08.581Z,100911.94
2023-05-19T08:18:38.737Z,100903.75
2023-05-19T08:21:08.865Z,100903.50
2023-05-19T08:23:41.480Z,100905.03
2023-05-19T08:26:11.550Z,100908.44
2023-05-19T08:28:41.480Z,100904.41
2023-05-19T08:31:11.481Z,100901.41
2023-05-19T08:33:41.553Z,100912.31
2023-05-19T08:36:11.621Z,100895.41
2023-05-19T08:38:44.298Z,100895.81
2023-05-19T08:41:14.400Z,100890.75
2023-05-19T08:43:45.295Z,100892.81
2023-05-19T08:46:17.155Z,100893.09
2023-05-19T08:48:47.976Z,100891.47
2023-05-19T08:51:27.981Z,100888.09
2023-05-19T08:54:10.202Z,100895.47
2023-05-19T08:56:41.153Z,100884.72
2023-05-19T08:59:12.016Z,100881.50
2023-05-19T09:01:42.946Z,100881.06
2023-05-19T09:04:14.032Z,100865.94
2023-05-19T09:06:45.376Z,100866.94
2023-05-19T09:09:18.409Z,100862.75
2023-05-19T09:11:49.314Z,100870.09
2023-05-19T09:14:19.290Z,100861.34
2023-05-19T09:16:51.250Z,100868.50
2023-05-19T09:19:23.004Z,100866.16
2023-05-19T09:22:03.481Z,100861.66
2023-05-19T09:24:38.752Z,100854.63
2023-05-19T09:27:08.873Z,100850.94
2023-05-19T09:29:38.918Z,100849.22
2023-05-19T09:32:09.574Z,100849.72
2023-05-19T09:34:44.530Z,100848.06
2023-05-19T09:37:16.144Z,100850.50
2023-05-19T09:39:52.291Z,100850.97
2023-05-19T09:42:28.529Z,100848.78
2023-05-19T09:45:09.837Z,100849.16
2023-05-19T09:47:42.193Z,100845.44
2023-05-19T09:50:15.030Z,100848.16
2023-05-19T09:52:47.205Z,100845.03
2023-05-19T09:55:23.281Z,100834.78
2023-05-19T09:57:53.341Z,100834.38
2023-05-19T10:00:24.559Z,100832.25
2023-05-19T10:02:54.729Z,100831.53
2023-05-19T10:05:25.176Z,100827.41
2023-05-19T10:07:56.573Z,100827.81
2023-05-19T10:10:31.772Z,100830.31
2023-05-19T10:13:04.264Z,100831.13
2023-05-19T10:15:40.740Z,100827.75
2023-05-19T10:18:15.105Z,100820.63
2023-05-19T10:20:45.916Z,100828.63
2023-05-19T10:23:15.945Z,100814.09
2023-05-19T10:25:51.102Z,100815.09
2023-05-19T10:28:25.682Z,100823.00
2023-05-19T10:31:01.624Z,100813.47
2023-05-19T10:33:44.364Z,100811.56
2023-05-19T10:36:36.408Z,100819.66
2023-05-19T10:39:10.414Z,100810.25
2023-05-19T10:41:53.871Z,100803.28
2023-05-19T10:44:37.097Z,100813.63
2023-05-19T10:47:12.392Z,100815.63
2023-05-19T10:49:43.508Z,100813.72
2023-05-19T10:52:33.849Z,100813.53
2023-05-19T10:55:04.977Z,100812.56
2023-05-19T10:57:37.850Z,100815.78
2023-05-19T11:00:31.474Z,100800.94
2023-05-19T11:03:16.419Z,100803.78
2023-05-19T11:05:50.195Z,100802.38
2023-05-19T11:08:33.985Z,100805.97
2023-05-19T11:11:16.486Z,100805.28
2023-05-19T11:13:50.909Z,100802.47
2023-05-19T11:16:23.719Z,100803.50
2023-05-19T11:18:54.101Z,100809.03
2023-05-19T11:21:24.777Z,100799.59
2023-05-19T11:23:55.941Z,100800.66
2023-05-19T11:26:45.273Z,100801.53
2023-05-19T11:29:18.792Z,100789.94
2023-05-19T11:31:49.579Z,100790.84
2023-05-19T11:34:21.371Z,100794.19
2023-05-19T11:36:52.361Z,100795.53
2023-05-19T11:39:22.751Z,100793.63
2023-05-19T11:41:54.276Z,100801.91
2023-05-19T11:44:27.035Z,100796.94
2023-05-19T11:46:57.436Z,100796.66
2023-05-19T11:49:27.962Z,100799.75
2023-05-19T11:51:58.312Z,100792.78
2023-05-19T11:54:36.708Z,100791.72
2023-05-19T11:57:07.229Z,100789.84
2023-05-19T11:59:45.660Z,100795.00
2023-05-19T12:02:21.725Z,100791.94
2023-05-19T12:04:52.335Z,100794.78
2023-05-19T12:07:24.991Z,100800.84
2023-05-19T12:09:57.552Z,100791.66
2023-05-19T12:12:27.582Z,100799.28
2023-05-19T12:15:00.536Z,100798.06
2023-05-19T12:17:30.607Z,100806.69
2023-05-19T12:20:01.717Z,100797.72
2023-05-19T12:22:31.998Z,100801.81
2023-05-19T12:25:02.881Z,100812.47
2023-05-19T12:27:34.766Z,100808.34
2023-05-19T12:30:08.537Z,100811.50
2023-05-19T12:32:39.241Z,100809.91
2023-05-19T12:35:10.381Z,100811.97
2023-05-19T12:37:44.905Z,100815.75
2023-05-19T12:40:19.437Z,100807.53
2023-05-19T12:42:52.262Z,100815.63
2023-05-19T12:45:28.030Z,100820.06
2023-05-19T12:47:58.610Z,100809.72
2023-05-19T12:50:34.390Z,100810.94
2023-05-19T12:53:04.815Z,100816.66
2023-05-19T12:55:42.210Z,100806.59
2023-05-19T12:58:13.371Z,100806.38
2023-05-19T13:00:49.885Z,100818.13
2023-05-19T13:03:22.376Z,100807.22
2023-05-19T13:05:54.049Z,100811.00
2023-05-19T13:08:25.672Z,100812.06
2023-05-19T13:10:56.314Z,100816.47
2023-05-19T13:13:26.545Z,100802.97
2023-05-19T13:15:59.445Z,100801.22
2023-05-19T13:18:32.279Z,100798.03
2023-05-19T13:21:02.368Z,100792.78
2023-05-19T13:23:32.575Z,100791.53
2023-05-19T13:26:05.020Z,100792.00
2023-05-19T13:28:35.714Z,100795.34
2023-05-19T13:31:08.411Z,100792.94
2023-05-19T13:33:38.449Z,100794.22
2023-05-19T13:36:09.489Z,100785.50
2023-05-19T13:38:40.459Z,100788.00
2023-05-19T13:41:11.002Z,100775.69
2023-05-19T13:43:41.243Z,100786.09
2023-05-19T13:46:13.893Z,100781.16
2023-05-19T13:48:44.067Z,100783.75
2023-05-19T13:51:14.511Z,100786.09
2023-05-19T13:53:44.594Z,100771.66
2023-05-19T13:56:14.597Z,100783.97
2023-05-19T13:58:44.650Z,100771.50
2023-05-19T14:01:17.462Z,100780.41
2023-05-19T14:03:47.697Z,100773.72
2023-05-19T14:06:17.851Z,100772.34
2023-05-19T14:08:48.648Z,100777.66
2023-05-19T14:11:21.892Z,100774.69
2023-05-19T14:13:53.874Z,100765.38
2023-05-19T14:16:27.445Z,100763.38
2023-05-19T14:18:57.671Z,100756.69
2023-05-19T14:21:27.810Z,100757.44
2023-05-19T14:23:58.089Z,100760.63
2023-05-19T14:26:29.389Z,100750.75
2023-05-19T14:28:59.856Z,100756.56
2023-05-19T14:31:32.585Z,100764.66
2023-05-19T14:34:02.739Z,100762.44
2023-05-19T14:36:34.138Z,100749.78
2023-05-19T14:39:04.237Z,100745.09
2023-05-19T14:41:34.247Z,100744.63
2023-05-19T14:44:04.309Z,100744.53
2023-05-19T14:46:36.962Z,100752.75
2023-05-19T14:49:07.120Z,100757.84
2023-05-19T14:51:37.233Z,100750.34
2023-05-19T14:54:07.374Z,100759.34
2023-05-19T14:56:37.520Z,100761.25
2023-05-19T14:59:07.547Z,100758.69
2023-05-19T15:01:40.274Z,100771.91
2023-05-19T15:04:10.417Z,100761.28
2023-05-19T15:06:40.413Z,100754.34
2023-05-19T15:09:12.100Z,100747.72
2023-05-19T15:11:42.071Z,100761.28
2023-05-19T15:14:12.072Z,100750.00
2023-05-19T15:16:52.964Z,100751.78
2023-05-19T15:19:23.125Z,100756.09
2023-05-19T15:21:53.440Z,100751.41
2023-05-19T15:24:24.524Z,100744.28
2023-05-19T15:26:55.578Z,100738.38
2023-05-19T15:29:25.608Z,100757.53
2023-05-19T15:31:58.434Z,100756.00
2023-05-19T15:34:28.762Z,100752.88
2023-05-19T15:36:58.774Z,100751.66
2023-05-19T15:39:28.940Z,100752.34
2023-05-19T15:41:59.039Z,100748.63
2023-05-19T15:44:29.643Z,100747.16
2023-05-19T15:47:02.508Z,100752.97
2023-05-19T15:49:32.684Z,100742.84
2023-05-19T15:52:02.821Z,100750.88
2023-05-19T15:54:32.939Z,100745.81
2023-05-19T15:57:02.960Z,100737.41
2023-05-19T15:59:32.994Z,100739.50
2023-05-19T16:02:05.859Z,100741.75
2023-05-19T16:04:36.213Z,100743.88
2023-05-19T16:07:06.340Z,100743.22
2023-05-19T16:09:36.387Z,100739.00
2023-05-19T16:12:06.856Z,100733.53
2023-05-19T16:14:37.935Z,100732.75
2023-05-19T16:17:11.795Z,100723.25
2023-05-19T16:19:41.818Z,100716.22
2023-05-19T16:22:11.873Z,100712.69
2023-05-19T16:24:41.993Z,100716.66
2023-05-19T16:27:12.213Z,100711.44
2023-05-19T16:29:42.348Z,100706.00
2023-05-19T16:32:15.381Z,100707.53
2023-05-19T16:34:45.647Z,100707.28
2023-05-19T16:37:15.800Z,100713.13
2023-05-19T16:39:48.478Z,100701.56
2023-05-19T16:42:18.508Z,100705.06
2023-05-19T16:44:48.533Z,100698.81
2023-05-19T16:47:21.261Z,100691.84
2023-05-19T16:49:51.492Z,100694.41
2023-05-19T16:52:21.581Z,100692.13
2023-05-19T16:54:51.582Z,100694.47
2023-05-19T16:57:21.715Z,100693.63
2023-05-19T16:59:51.826Z,100687.78
2023-05-19T17:02:24.440Z,100686.50
2023-05-19T17:04:55.497Z,100693.00
2023-05-19T17:07:25.566Z,100682.72
2023-05-19T17:09:56.046Z,100690.06
2023-05-19T17:12:26.276Z,100690.69
2023-05-19T17:14:57.193Z,100697.22
2023-05-19T17:17:29.736Z,100687.31
2023-05-19T17:19:59.897Z,100697.41
2023-05-19T17:22:30.484Z,100695.53
2023-05-19T17:25:00.493Z,100686.28
2023-05-19T17:27:30.501Z,100693.63
2023-05-19T17:30:00.546Z,100683.56
2023-05-19T17:32:36.196Z,100689.41
2023-05-19T17:35:06.822Z,100683.94
2023-05-19T17:37:37.354Z,100683.94
2023-05-19T17:40:08.607Z,100680.34
2023-05-19T17:42:38.822Z,100684.75
2023-05-19T17:45:12.211Z,100684.97
2023-05-19T17:47:44.845Z,100685.16
2023-05-19T17:50:14.845Z,100679.31
2023-05-19T17:52:45.970Z,100673.41
2023-05-19T17:55:16.850Z,100676.72
2023-05-19T17:57:48.760Z,100668.31
2023-05-19T18:00:19.396Z,100675.44
2023-05-19T18:02:53.044Z,100672.94
2023-05-19T18:05:24.227Z,100677.97
2023-05-19T18:07:56.460Z,100675.00
2023-05-19T18:10:30.242Z,100676.47
2023-05-19T18:13:00.521Z,100679.16
2023-05-19T18:15:30.469Z,100674.16
2023-05-19T18:18:04.476Z,100672.50
2023-05-19T18:20:35.140Z,100672.50
2023-05-19T18:23:05.365Z,100668.47
2023-05-19T18:25:35.456Z,100667.44
2023-05-19T18:28:05.594Z,100660.72
2023-05-19T18:30:36.306Z,100664.84
2023-05-19T18:33:08.956Z,100659.00
2023-05-19T18:35:39.899Z,100662.31
2023-05-19T18:38:09.905Z,100668.00
2023-05-19T18:40:40.440Z,100666.06
2023-05-19T18:43:10.481Z,100667.34
2023-05-19T18:45:40.610Z,100666.06
2023-05-19T18:48:13.694Z,100665.84
2023-05-19T18:50:44.782Z,100658.47
2023-05-19T18:53:14.786Z,100658.41
2023-05-19T18:55:44.831Z,100664.41
2023-05-19T18:58:14.828Z,100663.81
2023-05-19T19:00:44.951Z,100666.31
2023-05-19T19:03:17.794Z,100667.97
2023-05-19T19:05:47.970Z,100661.25
2023-05-19T19:08:18.068Z,100659.56
2023-05-19T19:10:49.178Z,100659.16
2023-05-19T19:13:19.517Z,100660.94
2023-05-19T19:15:49.654Z,100664.88
2023-05-19T19:18:22.465Z,100663.28
2023-05-19T19:20:52.513Z,100660.06
2023-05-19T19:23:22.510Z,100661.09
2023-05-19T19:25:52.665Z,100664.47
2023-05-19T19:28:22.743Z,100665.97
2023-05-19T19:30:52.820Z,100664.47
2023-05-19T19:33:25.514Z,100670.31
2023-05-19T19:35:55.704Z,100670.72
2023-05-19T19:38:25.825Z,100666.44
2023-05-19T19:40:55.977Z,100672.84
2023-05-19T19:43:26.048Z,100672.69
2023-05-19T19:46:01.657Z,100680.59
2023-05-19T19:48:34.368Z,100679.31
2023-05-19T19:51:04.396Z,100671.94
2023-05-19T19:53:34.517Z,100674.63
2023-05-19T19:56:07.411Z,100670.22
2023-05-19T19:58:37.596Z,100676.69
2023-05-19T20:01:08.533Z,100668.66
2023-05-19T20:03:41.326Z,100672.88
2023-05-19T20:06:11.538Z,100671.63
2023-05-19T20:08:41.546Z,100674.47
2023-05-19T20:11:11.673Z,100680.41
2023-05-19T20:13:41.828Z,100675.19
2023-05-19T20:16:11.893Z,100679.56
2023-05-19T20:18:44.589Z,100674.56
2023-05-19T20:21:14.718Z,100673.63
2023-05-19T20:23:44.727Z,100671.56
2023-05-19T20:26:15.142Z,100666.31
2023-05-19T20:28:45.249Z,100665.94
2023-05-19T20:31:15.364Z,100665.75
2023-05-19T20:33:48.003Z,100660.31
2023-05-19T20:36:18.296Z,100659.72
2023-05-19T20:38:48.372Z,100655.66
2023-05-19T20:41:18.409Z,100650.53
2023-05-19T20:43:48.431Z,100648.88
2023-05-19T20:46:18.516Z,100642.75
2023-05-19T20:48:51.206Z,100649.03
2023-05-19T20:51:21.931Z,100652.41
2023-05-19T20:53:51.993Z,100644.09
2023-05-19T20:56:22.540Z,100641.94
2023-05-19T20:58:52.606Z,100651.38
2023-05-19T21:01:22.639Z,100645.50
2023-05-19T21:03:55.332Z,100649.22
2023-05-19T21:06:25.349Z,100651.25
2023-05-19T21:08:55.326Z,100645.34
2023-05-19T21:11:25.405Z,100643.66
2023-05-19T21:13:56.333Z,100642.03
2023-05-19T21:16:26.728Z,100639.91
2023-05-19T21:18:59.462Z,100647.59
2023-05-19T21:21:29.603Z,100639.84
2023-05-19T21:23:59.673Z,100640.44
2023-05-19T21:26:29.911Z,100635.00
2023-05-19T21:28:59.876Z,100637.97
2023-05-19T21:31:29.911Z,100640.63
2023-05-19T21:34:02.529Z,100638.94
2023-05-19T21:36:33.058Z,100634.88
2023-05-19T21:39:03.884Z,100630.59
2023-05-19T21:41:34.027Z,100627.34
2023-05-19T21:44:04.067Z,100632.50
2023-05-19T21:46:34.061Z,100627.78
2023-05-19T21:49:08.622Z,100620.47
2023-05-19T21:51:38.795Z,100629.28
2023-05-19T21:54:08.874Z,100632.94
2023-05-19T21:56:38.928Z,100630.28
2023-05-19T21:59:09.272Z,100625.06
2023-05-19T22:01:39.361Z,100613.22
2023-05-19T22:04:12.110Z,100615.31
2023-05-19T22:06:42.102Z,100617.56
2023-05-19T22:09:12.216Z,100623.72
2023-05-19T22:11:45.096Z,100618.75
2023-05-19T22:14:15.170Z,100614.53
2023-05-19T22:16:45.309Z,100617.50
2023-05-19T22:19:18.335Z,100615.75
2023-05-19T22:21:49.275Z,100613.69
2023-05-19T22:24:21.745Z,100614.53
2023-05-19T22:26:51.776Z,100600.69
2023-05-19T22:29:21.888Z,100601.06
2023-05-19T22:31:51.868Z,100605.47
2023-05-19T22:34:24.563Z,100606.56
2023-05-19T22:36:54.660Z,100603.66
2023-05-19T22:39:24.730Z,100601.13
2023-05-19T22:41:54.708Z,100607.41
2023-05-19T22:44:24.704Z,100605.53
2023-05-19T22:46:54.728Z,100600.41
2023-05-19T22:49:27.612Z,100601.00
2023-05-19T22:51:57.595Z,100603.06
2023-05-19T22:54:27.659Z,100593.56
2023-05-19T22:56:57.684Z,100596.00
2023-05-19T22:59:27.649Z,100588.91
2023-05-19T23:01:57.751Z,100586.19
2023-05-19T23:04:30.689Z,100584.16
2023-05-19T23:07:00.751Z,100588.13
2023-05-19T23:09:30.812Z,100585.59
2023-05-19T23:12:00.876Z,100582.81
2023-05-19T23:14:31.782Z,100571.53
2023-05-19T23:17:01.762Z,100576.41
2023-05-19T23:19:35.488Z,100581.19
2023-05-19T23:22:05.577Z,100580.75
2023-05-19T23:24:35.660Z,100583.47
2023-05-19T23:27:05.718Z,100590.31
2023-05-19T23:29:35.687Z,100585.91
2023-05-19T23:32:05.686Z,100581.25
2023-05-19T23:34:38.311Z,100579.38
2023-05-19T23:37:08.778Z,100581.72
2023-05-19T23:39:38.889Z,100583.66
2023-05-19T23:42:09.306Z,100580.41
2023-05-19T23:44:39.286Z,100570.84
2023-05-19T23:47:09.463Z,100581.50
2023-05-19T23:49:42.243Z,100582.28
2023-05-19T23:52:14.018Z,100575.34
2023-05-19T23:54:44.059Z,100577.25
2023-05-19T23:57:14.046Z,100578.56
2023-05-19T23:59:44.045Z,100576.59
